LFSBLFGA

Guest
Details From LFSB - Bale-Mulhouse
To LFGA - Houssen
Flight Number -
Tags generated
Created
Modified
Stats Distance 32 nm / 59 km
Max Altitude 2,300 ft / 701 m
Waypoints 3
Social Downloads 1
Likes 0
Share VATSIM

Download

Looking for another format? Having issues loading an existing format? Contact us
Advertisement - Login to hide

Notes

Basic altitude profile: - Ascent Rate: 3000ft/min - Ascent Speed: 250kts - Cruise Altitude: 35000ft - Cruise Speed: 420kts - Descent Rate: 1500ft/min - Descent Speed: 250kts

Route

LFSB CLR LFGA

ID Type Via Altitude Latitude Longitude Leg Dist Tot Dist Heading (true) Name
O LFSB APT - 0 ft / 0 m 47.59581˚ 7.52481˚ - 0 nm - Bale-Mulhouse
CLR DME - 2,300 ft / 701 m 47.92933˚ 7.39997˚ 20 nm 20 nm 346° / 346° COLMAR TACAN DME
O LFGA APT - 0 ft / 0 m 48.10970˚ 7.35897˚ 10 nm 31 nm 351° / 351° Houssen

Altitude Profile

Advertisement - Login to hide

LFSB

Details ICAO LFSB (MLH)
Name Bale-Mulhouse
Region France
Timezone Europe/Paris (UTC+2.0)
Stats Elevation 885 ft / 270 m (AMSL)
Location 47.595810° 7.524806°
Runways 2
Magnetic Variation 2.139° E

METAR

LFSB 222330Z AUTO 00000KT CAVOK 15/12 Q1015 NOSIG

Decode

TAF

TAF LFSB 221700Z 2218/2318 33005KT 9999 FEW050TCU SCT120 BKN250 TEMPO 2218/2221 SHRA SCT050CB TEMPO 2303/2318 SHRA PROB40 TEMPO 2313/2317 5000 TSRA SCT045CB

Decode

Departure Runways

ID Width Length Bearing (true) Bearing (mag) Surface Threshold Offset Overrun Length
08 193 ft / 59 m 5,956 ft / 1,816 m 76.91° 74.77° Concrete 0 ft / 0 m 0 ft / 0 m
15 197 ft / 60 m 12,802 ft / 3,902 m 154.86° 152.72° Concrete 0 ft / 0 m 0 ft / 0 m
26 193 ft / 59 m 5,956 ft / 1,816 m 256.93° 254.79° Concrete 722 ft / 220 m 0 ft / 0 m
33 197 ft / 60 m 12,802 ft / 3,902 m 334.88° 332.74° Concrete 3,675 ft / 1,120 m 0 ft / 0 m

LFGA

Details ICAO LFGA (CMR)
Name Houssen
Region France
Timezone Europe/Paris (UTC+2.0)
Stats Elevation 627 ft / 191 m (AMSL)
Location 48.109701° 7.358965°
Runways 1
Magnetic Variation 2.091° E

METAR

LFGA 222330Z AUTO 28003KT CAVOK 16/13 Q1015

Decode

TAF

Not found

Destination Runways

ID Width Length Bearing (true) Bearing (mag) Surface Threshold Offset Overrun Length
01 98 ft / 30 m 5,298 ft / 1,615 m 10.98° 8.89° Asphalt 689 ft / 210 m 0 ft / 0 m
19 98 ft / 30 m 5,298 ft / 1,615 m 190.98° 188.89° Asphalt 0 ft / 0 m 0 ft / 0 m

Approach Navaids

Runway Type Ident Frequency Range Bearing (true) Bearing (mag) Slope Elevation
19 Localiser HO 110.70 MHz 18 nm / 33 km 191.00° 188.90° - 627 ft / 191 m (AMSL)
19 Glidescope HO 110.70 MHz 10 nm / 19 km 190.98° 188.89° 3.80° 627 ft / 191 m (AMSL)

Popular Alternatives